Ana Sayfa
METAR-TAF:

METAR-TAF

Havaalanları :

Erbil Havalimanı

Erbil, Irak

Enlem: 36-14-15N, Boylam: 43-57-47E, yükseklik: 415 m

Güncel hava durumu gözlemi

Rapor saat 07:00 UTC de 23 dakika önce yapıldı.
Rüzgar güney/güneydoğudan 14 kt
Sıcaklık 15°C
Nem 82%
Basınç 1011 hPa
Görüş mesafesi: 7000 m
4000 ft yükseklikte parçalı çok bulutlu

METAR: ORER 250700Z 16014KT 7000 BKN040 15/12 Q1011 TEMPO -SHRA

Saat: 10:23 (07:23 UTC)

Tahmin

Rapor saat 04:00 UTC de 3 saat ve 23 dakika önce yapıldı.
Ayın 25'si saat 06 UTC'den ayın 26'si saat 06 UTC'ye kadar geçerli Tahmin
Rüzgar değişken yönden 3 kt
Görüş mesafesi: 7000 m
3000 ft yükseklikte parçalı bulutlu
Geçici
ayın 25'si saat 06 UTC'den ayın 25'si saat 12 UTC'ye kadar
(Hafif) yağmur

TAF: ORER 250400Z 2506/2606 VRB03KT 7000 SCT030 TEMPO 2506/2512 - RA

4.000'den fazla havaalanı için hava durumu gözlemleri ve tahminleri (METAR ve TAF raporları).

Kullanılabilir istasyonlar harita üzerinde sarı ve kırmızı noktalarla gösterilir.

İstasyonun adını görmek için fareyi noktanın üzerinde gezdirin.

Sonrasında hava gözlem ve tahminlerini görmek için tıklayın.

Haritayı değiştirmek için: yaklaştırmak için siyah artı işaretli yeşil düğmeye ve uzaklaştırmak için de eksi işaretli düğmeye hızla tıklayın; bitişik haritalar için yeşil okları kullanın.


METAR-TAF: